Time;durP1;ratioP1;P1;durP2;ratioP2;P2;SDS_P1;SDS_P2;PMS_P1;PMS_P2;Temp;Humidity;BMP_temperature;BMP_pressure;BME280_temperature;BME280_humidity;BME280_pressure;Samples;Min_cycle;Max_cycle;Signal;HPM_P1;HPM_P2
2022/06/21 00:01:15;;;;;;;14.80;3.10;;;12.30;99.90;;;;;;5070489;28;20036;-77
2022/06/21 00:03:44;;;;;;;14.52;2.95;;;12.40;99.90;;;;;;5069890;28;20562;-78
2022/06/21 00:06:13;;;;;;;13.68;2.95;;;12.40;99.90;;;;;;5068568;28;20036;-78
2022/06/21 00:08:39;;;;;;;16.92;3.10;;;12.30;99.90;;;;;;5058526;28;20041;-79
2022/06/21 00:11:21;;;;;;;13.15;3.00;;;12.30;99.90;;;;;;5032970;28;20087;-79
2022/06/21 00:13:47;;;;;;;25.77;3.00;;;12.30;99.90;;;;;;5034000;28;20231;-78
2022/06/21 00:16:15;;;;;;;14.93;3.30;;;12.30;99.90;;;;;;5034582;28;20087;-79
2022/06/21 00:18:45;;;;;;;13.27;2.85;;;12.30;99.90;;;;;;5016675;28;20486;-77
2022/06/21 00:21:31;;;;;;;17.05;3.20;;;12.30;99.90;;;;;;5037669;28;20040;-78
2022/06/21 00:24:00;;;;;;;12.98;3.40;;;12.20;99.90;;;;;;5036082;28;20044;-79
2022/06/21 00:26:28;;;;;;;19.45;3.60;;;12.10;99.90;;;;;;5052338;28;20499;-79
2022/06/21 00:28:55;;;;;;;18.05;3.85;;;12.20;99.90;;;;;;5055692;28;20071;-79
2022/06/21 00:31:33;;;;;;;19.27;3.40;;;12.10;99.90;;;;;;5069281;28;20149;-77
2022/06/21 00:34:04;;;;;;;16.50;3.50;;;12.10;99.90;;;;;;5056162;28;20482;-79
2022/06/21 00:36:33;;;;;;;16.58;3.50;;;12.00;99.90;;;;;;5055202;28;20499;-78
2022/06/21 00:39:01;;;;;;;14.18;3.10;;;12.00;99.90;;;;;;5072866;28;20564;-78
2022/06/21 00:41:39;;;;;;;11.55;2.80;;;12.00;99.90;;;;;;5072468;28;20051;-78
2022/06/21 00:44:09;;;;;;;11.45;2.97;;;12.00;99.90;;;;;;5072752;28;20072;-78
2022/06/21 00:46:52;;;;;;;14.90;3.08;;;12.00;99.90;;;;;;5072714;28;20084;-78
2022/06/21 00:49:27;;;;;;;13.10;3.25;;;12.00;99.90;;;;;;5072089;28;20037;-78
2022/06/21 00:51:59;;;;;;;10.98;3.35;;;11.90;99.90;;;;;;5055352;28;20040;-78
2022/06/21 00:54:40;;;;;;;13.25;3.40;;;11.90;99.90;;;;;;5072565;28;20045;-78
2022/06/21 00:57:17;;;;;;;14.75;3.55;;;11.90;99.90;;;;;;5072487;28;20075;-78
2022/06/21 00:59:49;;;;;;;14.75;3.42;;;11.90;99.90;;;;;;5072648;28;20036;-78
2022/06/21 01:02:20;;;;;;;17.63;3.38;;;11.90;99.90;;;;;;5055622;28;20047;-79
2022/06/21 01:04:50;;;;;;;13.02;3.17;;;11.80;99.90;;;;;;5071632;28;20044;-79
2022/06/21 01:07:16;;;;;;;14.60;3.70;;;11.80;99.90;;;;;;5072276;28;20484;-79
2022/06/21 01:10:03;;;;;;;12.35;3.40;;;11.80;99.90;;;;;;5072043;28;20036;-79
2022/06/21 01:13:03;;;;;;;9.57;3.40;;;11.70;99.90;;;;;;5073540;28;20514;-78
2022/06/21 01:15:34;;;;;;;12.25;3.35;;;11.70;99.90;;;;;;5071980;28;20353;-79
2022/06/21 01:18:03;;;;;;;18.83;3.97;;;11.70;99.90;;;;;;5045072;28;20041;-79
2022/06/21 01:20:33;;;;;;;15.65;4.25;;;11.70;99.90;;;;;;5051531;28;20041;-76
2022/06/21 01:23:25;;;;;;;13.40;3.95;;;11.60;99.90;;;;;;5071079;28;20037;-77
2022/06/21 01:26:15;;;;;;;13.50;4.03;;;11.60;99.90;;;;;;5053616;28;20047;-78
2022/06/21 01:28:46;;;;;;;11.85;3.50;;;11.60;99.90;;;;;;5051599;28;20053;-77
2022/06/21 01:31:13;;;;;;;14.80;3.80;;;11.60;99.90;;;;;;5054985;28;20178;-79
2022/06/21 01:33:41;;;;;;;14.85;3.40;;;11.60;99.90;;;;;;5055398;28;20110;-79
2022/06/21 01:36:12;;;;;;;15.02;3.83;;;11.60;99.90;;;;;;5056697;28;20147;-79
2022/06/21 01:38:43;;;;;;;10.07;3.60;;;11.60;99.90;;;;;;5072613;28;20048;-77
2022/06/21 01:41:15;;;;;;;9.43;3.17;;;11.50;99.90;;;;;;5073740;28;20079;-77
2022/06/21 01:43:44;;;;;;;14.32;3.20;;;11.50;99.90;;;;;;5051133;28;20099;-79
2022/06/21 01:46:20;;;;;;;11.63;3.63;;;11.50;99.90;;;;;;5051952;28;20065;-79
2022/06/21 01:48:53;;;;;;;11.82;3.20;;;11.40;99.90;;;;;;5065909;28;20135;-79
2022/06/21 01:51:25;;;;;;;14.27;3.10;;;11.40;99.90;;;;;;5070721;28;20043;-79
2022/06/21 01:53:52;;;;;;;7.22;3.28;;;11.30;99.90;;;;;;5054780;28;20044;-79
2022/06/21 01:56:25;;;;;;;15.95;3.20;;;11.30;99.90;;;;;;5071049;28;20491;-79
2022/06/21 01:59:01;;;;;;;12.45;3.38;;;11.30;99.90;;;;;;5055238;28;20436;-79
2022/06/21 02:01:37;;;;;;;11.02;3.90;;;11.30;99.90;;;;;;5055015;28;20042;-79
2022/06/21 02:04:05;;;;;;;13.25;3.50;;;11.20;99.90;;;;;;5071031;28;20475;-78
2022/06/21 02:06:38;;;;;;;11.20;3.40;;;11.20;99.90;;;;;;5070594;28;20043;-79
2022/06/21 02:09:11;;;;;;;12.60;3.38;;;11.20;99.90;;;;;;5071107;28;20036;-78
2022/06/21 02:11:45;;;;;;;10.00;3.40;;;11.20;99.90;;;;;;5050770;28;20047;-79
2022/06/21 02:14:29;;;;;;;15.05;3.65;;;11.30;99.90;;;;;;5054606;28;20038;-79
2022/06/21 02:17:26;;;;;;;10.00;3.10;;;11.30;99.90;;;;;;5071323;28;20037;-80
2022/06/21 02:20:17;;;;;;;9.35;3.17;;;11.20;99.90;;;;;;5048957;28;20079;-79
2022/06/21 02:22:46;;;;;;;9.55;3.20;;;11.20;99.90;;;;;;5054660;28;20043;-78
2022/06/21 02:25:18;;;;;;;10.75;3.22;;;11.20;99.90;;;;;;5050993;28;20081;-79
2022/06/21 02:27:43;;;;;;;7.85;2.80;;;11.20;99.90;;;;;;5050194;28;20045;-80
2022/06/21 02:30:17;;;;;;;9.20;3.10;;;11.20;99.90;;;;;;5054015;28;20055;-78
2022/06/21 02:32:43;;;;;;;5.43;2.92;;;11.20;99.90;;;;;;5053950;28;20143;-78
2022/06/21 02:35:32;;;;;;;10.68;2.70;;;11.20;99.90;;;;;;5053500;28;20163;-78
2022/06/21 02:38:01;;;;;;;7.45;2.47;;;11.20;99.90;;;;;;5053421;28;20478;-78
2022/06/21 02:40:34;;;;;;;8.82;2.47;;;11.20;99.90;;;;;;5053632;28;20047;-79
2022/06/21 02:43:08;;;;;;;6.45;2.70;;;11.10;99.90;;;;;;5070363;28;20040;-78
2022/06/21 02:45:50;;;;;;;5.13;2.50;;;11.10;99.90;;;;;;5071000;28;20496;-77
2022/06/21 02:48:23;;;;;;;7.93;2.80;;;11.10;99.90;;;;;;5054912;28;20067;-76
2022/06/21 02:50:54;;;;;;;5.60;2.70;;;11.00;99.90;;;;;;5070545;28;20364;-79
2022/06/21 02:53:27;;;;;;;7.95;2.95;;;11.00;99.90;;;;;;5052951;28;20056;-79
2022/06/21 02:56:19;;;;;;;8.45;3.25;;;11.00;99.90;;;;;;5052904;28;20439;-79
2022/06/21 02:58:49;;;;;;;10.38;2.92;;;10.90;99.90;;;;;;5070508;28;20534;-80
2022/06/21 03:01:39;;;;;;;8.35;2.80;;;10.90;99.90;;;;;;5069643;28;20054;-80
2022/06/21 03:04:06;;;;;;;7.90;2.97;;;10.90;99.90;;;;;;5054049;28;20062;-79
2022/06/21 03:06:33;;;;;;;5.28;3.00;;;10.90;99.90;;;;;;5056266;28;20539;-78
2022/06/21 03:09:06;;;;;;;7.70;3.20;;;10.90;99.90;;;;;;5067686;28;20040;-79
2022/06/21 03:11:37;;;;;;;10.95;3.00;;;10.90;99.90;;;;;;5056793;28;20044;-79
2022/06/21 03:14:06;;;;;;;7.95;3.28;;;11.00;99.90;;;;;;5053887;28;20044;-77
2022/06/21 03:16:32;;;;;;;10.68;3.58;;;10.90;99.90;;;;;;5053480;28;20059;-78
2022/06/21 03:19:01;;;;;;;9.40;3.33;;;11.00;99.90;;;;;;5053752;28;20439;-78
2022/06/21 03:21:34;;;;;;;8.90;3.58;;;11.00;99.90;;;;;;5051613;28;20065;-78
2022/06/21 03:24:06;;;;;;;12.23;3.75;;;11.10;99.90;;;;;;5036686;28;20078;-78
2022/06/21 03:26:34;;;;;;;11.20;4.43;;;11.10;99.90;;;;;;5052969;28;20468;-78
2022/06/21 03:28:59;;;;;;;8.27;3.80;;;11.10;99.90;;;;;;5060665;28;20079;-79
2022/06/21 03:31:31;;;;;;;9.77;3.95;;;11.10;99.90;;;;;;5058749;28;20082;-78
2022/06/21 03:34:10;;;;;;;12.10;3.90;;;11.10;99.90;;;;;;5050907;28;20052;-79
2022/06/21 03:36:36;;;;;;;8.95;3.53;;;11.20;99.90;;;;;;5064882;28;20036;-79
2022/06/21 03:39:07;;;;;;;10.63;3.78;;;11.20;99.90;;;;;;5052982;28;20056;-79
2022/06/21 03:41:43;;;;;;;9.25;3.70;;;11.30;99.90;;;;;;5036267;28;20037;-78
2022/06/21 03:44:21;;;;;;;15.20;3.95;;;11.30;99.90;;;;;;5053249;28;20047;-79
2022/06/21 03:46:51;;;;;;;9.38;3.80;;;11.40;99.90;;;;;;5053254;28;20128;-79
2022/06/21 03:49:41;;;;;;;5.90;3.30;;;11.40;99.90;;;;;;5035836;28;20048;-79
2022/06/21 03:52:41;;;;;;;9.27;3.75;;;11.40;99.90;;;;;;5036330;28;20132;-79
2022/06/21 03:55:21;;;;;;;10.35;3.75;;;11.50;99.90;;;;;;5052656;28;20052;-80
2022/06/21 03:58:12;;;;;;;10.02;3.60;;;11.50;99.90;;;;;;5052781;28;20638;-79
2022/06/21 04:00:51;;;;;;;11.80;4.07;;;11.50;99.90;;;;;;5052884;28;20429;-78
2022/06/21 04:03:32;;;;;;;13.25;4.13;;;11.60;99.90;;;;;;5036144;28;20078;-78
2022/06/21 04:06:04;;;;;;;10.07;3.70;;;11.60;99.90;;;;;;5086063;28;20036;-79
2022/06/21 04:09:00;;;;;;;10.05;3.72;;;11.60;99.90;;;;;;5055600;28;20032;-79
2022/06/21 04:11:45;;;;;;;17.33;4.10;;;11.70;99.90;;;;;;5058528;28;20143;-76
2022/06/21 04:14:16;;;;;;;;;;;11.70;99.90;;;;;;5057230;28;20129;-77
2022/06/21 04:16:49;;;;;;;9.75;3.65;;;11.70;99.90;;;;;;5040644;28;19923;-79
2022/06/21 04:19:43;;;;;;;10.07;3.97;;;11.70;99.90;;;;;;5040122;28;20075;-80
2022/06/21 04:22:29;;;;;;;7.65;3.30;;;11.70;99.90;;;;;;5043969;28;20097;-78
2022/06/21 04:25:15;;;;;;;10.98;4.07;;;11.90;99.90;;;;;;5044030;28;20040;-80
2022/06/21 04:28:08;;;;;;;9.95;4.00;;;11.90;99.90;;;;;;5058860;28;20139;-79
2022/06/21 04:31:11;;;;;;;9.18;4.25;;;12.00;99.90;;;;;;5039652;28;20055;-79
2022/06/21 04:33:44;;;;;;;9.80;3.90;;;12.00;99.90;;;;;;4995823;28;20077;-77
2022/06/21 04:36:19;;;;;;;8.07;4.15;;;12.10;99.90;;;;;;4996947;28;20061;-78
2022/06/21 04:39:06;;;;;;;14.00;4.40;;;12.20;99.90;;;;;;4997274;28;20070;-78
2022/06/21 04:41:50;;;;;;;8.95;3.92;;;12.30;99.90;;;;;;4995816;28;20046;-79
2022/06/21 04:44:23;;;;;;;10.43;4.10;;;12.30;99.90;;;;;;4996374;28;20140;-80
2022/06/21 04:46:58;;;;;;;10.00;3.83;;;13.10;99.90;;;;;;4996651;28;20114;-79
2022/06/21 04:49:43;;;;;;;13.95;3.83;;;14.00;99.90;;;;;;4995580;28;20405;-79
2022/06/21 04:52:17;;;;;;;8.05;3.70;;;15.00;99.90;;;;;;5011870;28;20393;-79
2022/06/21 04:54:43;;;;;;;11.93;3.50;;;15.90;99.90;;;;;;5012012;28;20392;-77
2022/06/21 04:57:21;;;;;;;12.13;3.47;;;16.60;99.90;;;;;;4995924;28;20078;-78
2022/06/21 04:59:58;;;;;;;12.93;4.22;;;16.60;99.90;;;;;;4979255;28;20092;-78
2022/06/21 05:02:28;;;;;;;8.95;3.75;;;17.20;99.90;;;;;;4995794;28;20390;-80
2022/06/21 05:05:06;;;;;;;10.05;3.58;;;16.40;99.90;;;;;;5011516;28;20390;-78
2022/06/21 05:07:42;;;;;;;9.35;4.32;;;15.80;99.90;;;;;;5011916;28;20485;-78
2022/06/21 05:10:15;;;;;;;14.70;4.22;;;15.40;99.90;;;;;;5026023;28;20409;-78
2022/06/21 05:12:43;;;;;;;10.50;3.95;;;15.10;99.90;;;;;;5052239;28;20060;-78
2022/06/21 05:15:21;;;;;;;10.10;3.60;;;14.80;99.90;;;;;;5052305;28;20045;-78
2022/06/21 05:18:00;;;;;;;8.43;3.22;;;14.60;99.90;;;;;;5052566;28;20040;-79
2022/06/21 05:20:34;;;;;;;12.60;4.28;;;14.40;99.90;;;;;;5035122;28;20103;-79
2022/06/21 05:23:04;;;;;;;8.30;4.00;;;14.20;99.90;;;;;;5051850;28;20072;-79
2022/06/21 05:25:38;;;;;;;13.15;4.38;;;14.00;99.90;;;;;;5024552;28;20047;-77
2022/06/21 05:28:18;;;;;;;14.85;4.32;;;13.90;99.90;;;;;;5035656;28;20043;-78
2022/06/21 05:30:49;;;;;;;15.57;4.95;;;14.00;99.90;;;;;;5027937;28;20105;-79
2022/06/21 05:33:32;;;;;;;8.60;4.78;;;14.00;99.90;;;;;;5055830;28;20079;-79
2022/06/21 05:35:58;;;;;;;9.88;4.47;;;14.00;99.90;;;;;;5056410;28;20044;-77
2022/06/21 05:38:27;;;;;;;15.38;5.28;;;13.90;99.90;;;;;;5040751;28;20434;-77
2022/06/21 05:40:59;;;;;;;13.20;5.10;;;14.00;99.90;;;;;;5055588;28;20037;-79
2022/06/21 05:43:42;;;;;;;13.68;5.13;;;14.10;99.90;;;;;;5054228;28;20045;-80
2022/06/21 05:46:15;;;;;;;10.90;5.25;;;14.20;99.90;;;;;;5018713;28;20052;-79
2022/06/21 05:48:45;;;;;;;9.10;4.70;;;14.20;99.90;;;;;;5018885;28;20049;-79
2022/06/21 05:51:24;;;;;;;12.07;5.38;;;14.20;99.90;;;;;;5034557;28;20391;-79
2022/06/21 05:53:53;;;;;;;12.82;5.75;;;14.30;99.90;;;;;;5018825;28;20417;-80
2022/06/21 05:56:22;;;;;;;8.98;5.20;;;14.20;99.90;;;;;;5034975;28;20037;-79
2022/06/21 05:59:03;;;;;;;15.20;5.80;;;14.30;99.90;;;;;;5036468;28;20061;-79
2022/06/21 06:01:46;;;;;;;12.73;5.53;;;14.30;99.90;;;;;;5037842;28;20037;-78
2022/06/21 06:04:47;;;;;;;10.38;5.80;;;14.40;99.90;;;;;;5052675;28;20096;-78
2022/06/21 06:07:25;;;;;;;10.82;5.63;;;14.40;99.90;;;;;;4946798;28;20053;-78
2022/06/21 06:09:56;;;;;;;12.57;4.88;;;14.50;99.90;;;;;;4966466;28;20067;-78
2022/06/21 06:12:34;;;;;;;10.02;4.25;;;14.50;99.90;;;;;;4994414;28;20401;-79
2022/06/21 06:15:04;;;;;;;11.98;4.25;;;14.80;99.90;;;;;;5010671;28;20041;-80
2022/06/21 06:17:48;;;;;;;12.65;4.00;;;14.70;99.90;;;;;;4994189;28;20053;-79
2022/06/21 06:20:34;;;;;;;10.88;3.15;;;14.60;99.90;;;;;;5010373;28;20049;-78
2022/06/21 06:23:08;;;;;;;11.20;2.92;;;14.70;99.90;;;;;;4973867;28;20050;-80
2022/06/21 06:25:55;;;;;;;10.20;2.88;;;14.80;99.90;;;;;;4964306;28;20072;-80
2022/06/21 06:28:44;;;;;;;14.15;2.85;;;14.90;99.90;;;;;;4978476;28;20061;-80
2022/06/21 06:31:15;;;;;;;8.27;2.78;;;15.10;99.90;;;;;;4993256;28;20050;-79
2022/06/21 06:33:45;;;;;;;10.00;2.60;;;15.20;99.90;;;;;;4993787;28;20058;-80
2022/06/21 06:36:16;;;;;;;7.10;2.20;;;15.20;99.90;;;;;;5009459;28;20496;-80
2022/06/21 06:38:45;;;;;;;7.32;2.03;;;15.40;99.90;;;;;;4994293;28;20034;-79
2022/06/21 06:41:16;;;;;;;9.10;2.38;;;15.60;99.90;;;;;;4993520;28;20133;-80
2022/06/21 06:43:56;;;;;;;11.18;2.67;;;15.70;99.90;;;;;;5028325;28;20041;-79
2022/06/21 06:46:34;;;;;;;11.20;2.97;;;15.80;99.90;;;;;;5053607;28;20072;-79
2022/06/21 06:49:18;;;;;;;16.20;2.85;;;15.80;99.90;;;;;;5053783;28;20127;-80
2022/06/21 06:52:15;;;;;;;10.05;3.30;;;15.90;99.90;;;;;;5053393;28;20043;-79
2022/06/21 06:54:54;;;;;;;7.85;2.40;;;15.80;99.90;;;;;;5070441;28;20098;-80
2022/06/21 06:57:26;;;;;;;7.65;2.30;;;15.70;99.90;;;;;;5053719;28;20098;-79
2022/06/21 06:59:55;;;;;;;7.85;2.75;;;15.80;99.90;;;;;;5053704;28;20059;-79
2022/06/21 07:02:36;;;;;;;13.20;2.78;;;16.00;99.90;;;;;;5053858;28;20094;-81
2022/06/21 07:05:31;;;;;;;6.53;2.72;;;15.80;99.90;;;;;;5055379;28;20036;-78
2022/06/21 07:08:11;;;;;;;9.10;2.53;;;15.80;99.90;;;;;;5055005;28;20128;-79
2022/06/21 07:10:41;;;;;;;9.80;2.45;;;15.70;99.90;;;;;;5064376;28;20041;-79
2022/06/21 07:13:08;;;;;;;9.18;2.70;;;15.70;99.90;;;;;;5089443;28;20093;-80
2022/06/21 07:15:40;;;;;;;8.55;2.85;;;15.80;99.90;;;;;;5090151;28;20122;-79
2022/06/21 07:18:14;;;;;;;11.57;2.55;;;15.80;99.90;;;;;;5073108;28;20080;-79
2022/06/21 07:20:45;;;;;;;9.93;2.85;;;16.00;99.90;;;;;;5072910;28;20040;-79
2022/06/21 07:23:14;;;;;;;9.30;2.60;;;16.10;99.90;;;;;;5036756;28;20037;-80
2022/06/21 07:25:45;;;;;;;9.32;2.40;;;16.30;99.90;;;;;;5061990;28;20609;-79
2022/06/21 07:28:27;;;;;;;13.15;2.58;;;16.30;99.90;;;;;;5056696;28;20071;-79
2022/06/21 07:30:55;;;;;;;7.15;2.75;;;16.30;99.90;;;;;;5057771;28;20537;-79
2022/06/21 07:33:50;;;;;;;10.13;2.65;;;16.10;99.90;;;;;;5075576;28;20455;-79
2022/06/21 07:36:43;;;;;;;10.25;2.40;;;16.20;99.90;;;;;;5054778;28;20091;-79
2022/06/21 07:39:28;;;;;;;10.45;3.00;;;16.30;99.90;;;;;;5073152;28;20497;-78
2022/06/21 07:42:06;;;;;;;13.82;3.17;;;16.50;99.90;;;;;;5058912;28;20047;-80
2022/06/21 07:44:53;;;;;;;10.27;2.42;;;16.30;99.90;;;;;;5080342;28;20040;-80
2022/06/21 07:47:25;;;;;;;10.30;2.75;;;16.30;99.90;;;;;;5063419;28;20148;-79
2022/06/21 07:49:54;;;;;;;8.75;3.00;;;16.10;99.90;;;;;;5063034;28;20115;-79
2022/06/21 07:52:40;;;;;;;9.00;2.58;;;16.00;99.90;;;;;;5063128;28;20336;-80
2022/06/21 07:55:25;;;;;;;13.40;3.05;;;16.00;99.90;;;;;;5079491;28;20044;-79
2022/06/21 07:57:56;;;;;;;8.20;2.83;;;16.10;99.90;;;;;;5061735;28;20629;-78
2022/06/21 08:00:22;;;;;;;11.40;3.22;;;16.20;99.90;;;;;;5079664;28;20510;-80
2022/06/21 08:08:56;;;;;;;6.05;2.00;;;16.50;99.90;;;;;;5079674;28;20048;-78
2022/06/21 08:11:31;;;;;;;9.85;3.05;;;16.80;99.90;;;;;;5079432;28;20055;-79
2022/06/21 08:13:57;;;;;;;9.38;3.38;;;17.00;99.90;;;;;;5076684;28;20052;-80
2022/06/21 08:16:33;;;;;;;9.00;3.50;;;17.10;99.90;;;;;;5079256;28;20058;-80
2022/06/21 08:19:21;;;;;;;8.77;3.10;;;17.40;99.90;;;;;;5047991;28;20076;-80
2022/06/21 08:21:59;;;;;;;12.30;3.30;;;17.00;99.90;;;;;;5079521;28;20444;-80
2022/06/21 08:24:28;;;;;;;9.70;3.30;;;16.70;99.90;;;;;;5080345;28;20047;-78
2022/06/21 08:27:14;;;;;;;9.98;3.10;;;16.70;99.90;;;;;;5064444;28;20474;-78
2022/06/21 08:29:43;;;;;;;7.07;2.85;;;17.00;99.90;;;;;;5062847;28;20052;-79
2022/06/21 08:32:26;;;;;;;6.68;3.13;;;17.20;99.90;;;;;;5043913;28;20044;-78
2022/06/21 08:34:56;;;;;;;8.52;3.35;;;17.30;99.90;;;;;;5062692;28;20040;-80
2022/06/21 08:37:30;;;;;;;7.82;2.63;;;17.50;99.90;;;;;;5062100;28;20040;-79
2022/06/21 08:40:18;;;;;;;11.45;3.65;;;17.40;99.90;;;;;;5062598;28;20417;-79
2022/06/21 08:42:53;;;;;;;11.40;3.03;;;17.40;99.90;;;;;;5079492;28;20112;-80
2022/06/21 08:45:43;;;;;;;10.52;3.00;;;17.30;99.90;;;;;;5062829;28;20051;-80
2022/06/21 08:48:18;;;;;;;11.30;3.13;;;17.40;99.90;;;;;;5062620;28;20494;-80
2022/06/21 08:51:04;;;;;;;7.90;3.20;;;17.40;99.90;;;;;;5059360;28;20045;-79
2022/06/21 08:53:57;;;;;;;8.68;3.38;;;17.30;99.90;;;;;;5057396;28;20486;-77
2022/06/21 08:56:57;;;;;;;6.63;3.05;;;17.50;99.90;;;;;;5056610;28;20349;-81
2022/06/21 08:59:57;;;;;;;6.32;2.67;;;17.60;99.90;;;;;;5057042;28;20047;-79
2022/06/21 09:02:47;;;;;;;10.98;3.33;;;17.90;99.90;;;;;;5028848;28;20056;-79
2022/06/21 09:05:27;;;;;;;9.00;2.75;;;17.80;99.90;;;;;;5055865;28;20087;-79
2022/06/21 09:08:13;;;;;;;9.60;2.80;;;18.10;99.90;;;;;;5056047;28;20037;-80
2022/06/21 09:11:08;;;;;;;9.00;2.67;;;18.00;99.90;;;;;;5059410;28;20075;-80
2022/06/21 09:13:52;;;;;;;8.63;2.10;;;18.20;99.90;;;;;;5029368;28;20040;-80
2022/06/21 09:16:22;;;;;;;7.32;2.22;;;18.30;99.90;;;;;;5076069;28;20040;-80
2022/06/21 09:19:10;;;;;;;6.45;2.20;;;18.60;99.90;;;;;;5076010;28;20043;-79
2022/06/21 09:22:01;;;;;;;6.15;2.42;;;18.60;99.90;;;;;;5058744;28;20051;-80
2022/06/21 09:24:44;;;;;;;6.10;2.00;;;18.50;99.90;;;;;;5093157;28;20040;-80
2022/06/21 09:27:18;;;;;;;7.03;2.17;;;18.50;99.90;;;;;;5076045;28;20048;-80
2022/06/21 09:30:13;;;;;;;5.70;1.90;;;18.70;99.90;;;;;;5067682;28;20479;-80
2022/06/21 09:33:09;;;;;;;5.53;1.88;;;18.40;99.90;;;;;;5075889;28;20521;-79
2022/06/21 09:36:05;;;;;;;4.15;1.92;;;18.10;99.90;;;;;;5058865;28;20074;-80
2022/06/21 09:38:42;;;;;;;5.53;2.10;;;18.60;99.90;;;;;;5059289;28;20032;-80
2022/06/21 09:41:44;;;;;;;6.25;2.05;;;19.00;99.90;;;;;;5058845;28;20127;-79
2022/06/21 09:44:31;;;;;;;7.45;2.80;;;19.00;99.90;;;;;;5058972;28;20046;-80
2022/06/21 09:47:06;;;;;;;7.22;2.72;;;19.30;99.90;;;;;;5075560;28;20040;-79
2022/06/21 09:49:58;;;;;;;13.05;3.05;;;19.30;99.90;;;;;;5076203;28;20040;-78
2022/06/21 09:52:33;;;;;;;10.82;3.00;;;19.30;99.90;;;;;;5077368;28;20040;-78
2022/06/21 09:55:18;;;;;;;7.32;2.95;;;18.90;99.90;;;;;;5059719;28;20044;-80
2022/06/21 09:58:05;;;;;;;7.28;2.22;;;19.10;99.90;;;;;;5058763;28;20036;-80
2022/06/21 10:00:49;;;;;;;5.20;2.20;;;19.70;99.90;;;;;;5075133;28;20517;-79
2022/06/21 10:03:37;;;;;;;5.22;2.40;;;20.00;99.90;;;;;;5058522;28;20048;-79
2022/06/21 10:06:22;;;;;;;5.90;1.90;;;20.70;99.90;;;;;;5074230;28;20093;-80
2022/06/21 10:09:12;;;;;;;6.18;2.20;;;20.30;99.90;;;;;;5058196;28;20040;-80
2022/06/21 10:12:16;;;;;;;5.88;2.13;;;19.90;99.90;;;;;;5054757;28;20055;-80
2022/06/21 10:15:06;;;;;;;8.55;2.15;;;19.60;99.90;;;;;;5066133;28;20044;-80
2022/06/21 10:17:38;;;;;;;7.60;2.10;;;19.40;99.90;;;;;;5058183;28;20040;-80
2022/06/21 10:20:30;;;;;;;7.03;2.13;;;19.60;99.90;;;;;;5054267;28;20500;-80
2022/06/21 10:23:29;;;;;;;9.52;1.73;;;20.20;99.90;;;;;;5056055;28;20142;-80
2022/06/21 10:26:19;;;;;;;4.55;1.90;;;20.40;99.90;;;;;;5060555;28;20044;-79
2022/06/21 10:29:09;;;;;;;4.28;1.65;;;20.90;99.90;;;;;;5075493;28;20568;-79
2022/06/21 10:32:03;;;;;;;4.82;1.50;;;20.90;99.90;;;;;;5091583;28;20055;-79
2022/06/21 10:34:54;;;;;;;6.50;1.90;;;21.50;99.90;;;;;;5091178;28;20044;-79
2022/06/21 10:37:31;;;;;;;3.40;1.40;;;21.90;99.90;;;;;;5074740;28;20062;-80
2022/06/21 10:40:15;;;;;;;4.32;1.63;;;21.60;99.90;;;;;;5074685;28;20418;-79
2022/06/21 10:43:02;;;;;;;6.27;1.70;;;21.50;99.90;;;;;;5074169;28;20038;-80
2022/06/21 10:45:35;;;;;;;6.75;1.88;;;21.60;99.90;;;;;;5074567;28;20125;-79
2022/06/21 10:48:19;;;;;;;6.20;1.63;;;21.50;99.90;;;;;;5074235;28;20054;-80
2022/06/21 10:51:10;;;;;;;6.03;1.70;;;21.30;99.90;;;;;;5073728;28;20078;-78
2022/06/21 10:53:55;;;;;;;4.72;1.52;;;21.40;99.90;;;;;;5074094;28;20044;-79
2022/06/21 10:57:11;;;;;;;5.07;1.92;;;21.10;99.90;;;;;;5073926;28;20044;-79
2022/06/21 11:02:56;;;;;;;3.83;1.42;;;21.50;99.90;;;;;;5073563;28;20051;-80
2022/06/21 11:05:57;;;;;;;9.85;2.00;;;21.90;99.90;;;;;;5057001;28;20040;-80
2022/06/21 11:08:30;;;;;;;6.30;1.55;;;22.30;99.90;;;;;;5053708;28;20044;-79
2022/06/21 11:11:05;;;;;;;5.23;1.47;;;22.30;99.90;;;;;;5048935;28;20043;-79
2022/06/21 11:13:38;;;;;;;5.18;1.70;;;22.40;99.90;;;;;;5057475;28;20127;-79
2022/06/21 11:16:29;;;;;;;6.93;1.65;;;22.60;99.90;;;;;;5076835;28;20079;-78
2022/06/21 11:19:16;;;;;;;8.17;1.63;;;23.10;99.90;;;;;;5059763;28;20036;-78
2022/06/21 11:22:11;;;;;;;9.57;1.83;;;23.10;99.90;;;;;;5091792;28;20055;-78
2022/06/21 11:24:52;;;;;;;5.37;1.40;;;22.80;99.90;;;;;;5057585;28;20044;-79
2022/06/21 11:27:55;;;;;;;4.65;1.52;;;22.70;99.90;;;;;;5056956;28;20494;-79
2022/06/21 11:30:59;;;;;;;5.65;1.20;;;22.70;99.90;;;;;;5091930;28;20056;-80
2022/06/21 11:33:54;;;;;;;3.40;1.45;;;22.90;99.90;;;;;;5074042;28;20040;-80
2022/06/21 11:36:36;;;;;;;8.43;1.67;;;23.30;99.90;;;;;;5073290;28;20043;-80
2022/06/21 11:39:27;;;;;;;4.97;1.08;;;23.50;99.90;;;;;;5074083;28;20040;-80
2022/06/21 11:42:05;;;;;;;4.25;1.25;;;23.70;99.90;;;;;;5092475;28;20143;-80
2022/06/21 11:45:08;;;;;;;7.30;1.20;;;24.30;99.90;;;;;;5074238;28;20044;-80
2022/06/21 11:47:57;;;;;;;5.88;1.58;;;24.50;99.90;;;;;;5076956;28;20066;-80
2022/06/21 11:50:27;;;;;;;4.78;1.23;;;24.60;99.40;;;;;;5080117;28;20059;-80
2022/06/21 11:53:17;;;;;;;3.55;1.20;;;24.20;99.90;;;;;;5099248;28;20061;-80
2022/06/21 11:56:28;;;;;;;5.25;1.40;;;24.20;98.90;;;;;;5076234;28;20040;-79
2022/06/21 11:59:13;;;;;;;4.05;1.20;;;24.60;99.20;;;;;;5070562;28;20166;-80
2022/06/21 12:01:52;;;;;;;4.03;1.30;;;24.40;97.50;;;;;;5057529;28;20032;-80
2022/06/21 12:04:46;;;;;;;4.40;1.60;;;23.80;98.10;;;;;;5073356;28;20074;-79
2022/06/21 12:07:23;;;;;;;5.90;1.67;;;23.80;98.50;;;;;;5056311;28;20075;-80
2022/06/21 12:10:09;;;;;;;3.88;1.33;;;23.50;98.00;;;;;;5068010;28;20028;-79
2022/06/21 12:12:34;;;;;;;3.58;1.20;;;23.70;99.00;;;;;;5053337;28;20041;-81
2022/06/21 12:15:19;;;;;;;4.80;1.50;;;24.50;99.50;;;;;;5067280;28;20050;-80
2022/06/21 12:17:58;;;;;;;6.88;1.17;;;25.10;99.90;;;;;;5073117;28;20060;-80
2022/06/21 12:20:30;;;;;;;2.35;1.00;;;25.20;98.00;;;;;;5072823;28;20044;-80
2022/06/21 12:23:06;;;;;;;2.63;0.93;;;25.50;98.30;;;;;;5073131;28;20127;-79
2022/06/21 12:25:32;;;;;;;2.70;1.15;;;25.60;96.00;;;;;;5073038;28;20048;-80
2022/06/21 12:27:59;;;;;;;3.90;1.30;;;25.50;97.10;;;;;;5092287;28;20054;-81
2022/06/21 12:30:28;;;;;;;4.78;1.38;;;25.50;95.60;;;;;;5096779;28;20060;-79
2022/06/21 12:33:01;;;;;;;3.72;1.20;;;25.20;96.90;;;;;;5098729;28;20044;-80
2022/06/21 12:35:56;;;;;;;2.53;1.15;;;25.90;96.80;;;;;;5081023;28;20047;-80
2022/06/21 12:38:34;;;;;;;4.82;1.23;;;25.80;95.60;;;;;;5081965;28;20063;-78
2022/06/21 12:41:07;;;;;;;4.03;1.15;;;25.90;95.90;;;;;;5100298;28;20054;-78
2022/06/21 12:44:13;;;;;;;4.10;1.10;;;25.80;96.10;;;;;;5091907;28;20054;-79
2022/06/21 12:47:17;;;;;;;7.40;1.52;;;26.50;97.00;;;;;;5095251;28;20085;-79
2022/06/21 12:50:04;;;;;;;4.65;1.50;;;26.90;95.90;;;;;;5076237;28;20043;-80
2022/06/21 12:52:44;;;;;;;5.07;1.40;;;27.00;94.80;;;;;;5059804;28;20043;-80
2022/06/21 12:56:03;;;;;;;4.28;1.35;;;26.70;95.60;;;;;;5076090;28;20391;-80
2022/06/21 12:58:56;;;;;;;3.33;1.10;;;26.50;94.50;;;;;;5019126;28;20044;-80
2022/06/21 13:01:33;;;;;;;4.50;1.40;;;27.00;94.30;;;;;;5015740;28;20128;-81
2022/06/21 13:04:08;;;;;;;4.07;1.42;;;27.50;94.70;;;;;;5031795;28;20536;-81
2022/06/21 13:06:42;;;;;;;3.92;1.33;;;27.80;94.80;;;;;;5014687;28;20073;-80
2022/06/21 13:09:40;;;;;;;3.38;1.40;;;28.00;93.90;;;;;;5032094;28;20061;-81
2022/06/21 13:12:38;;;;;;;4.18;1.23;;;27.80;93.20;;;;;;5032310;28;20060;-80
2022/06/21 13:15:10;;;;;;;4.90;1.30;;;27.50;93.90;;;;;;5027832;28;20042;-81
2022/06/21 13:17:50;;;;;;;8.25;1.65;;;27.70;93.30;;;;;;5029727;28;20053;-80
2022/06/21 13:20:26;;;;;;;4.93;1.60;;;27.00;92.90;;;;;;5039475;28;20087;-81
2022/06/21 13:23:28;;;;;;;5.47;1.85;;;26.20;93.50;;;;;;4999115;28;20050;-80
2022/06/21 13:26:22;;;;;;;4.05;1.70;;;25.80;93.50;;;;;;5032258;28;20500;-81
2022/06/21 13:28:58;;;;;;;;;;;25.60;93.30;;;;;;4932133;28;20108;-81
2022/06/21 13:31:47;;;;;;;7.32;1.42;;;25.80;93.90;;;;;;4992719;28;19921;-81
2022/06/21 13:34:47;;;;;;;4.25;1.77;;;25.60;92.70;;;;;;4976341;28;20429;-79
2022/06/21 13:37:18;;;;;;;4.03;1.50;;;25.60;93.30;;;;;;4975956;28;20046;-80
2022/06/21 13:39:58;;;;;;;4.63;1.70;;;25.30;92.80;;;;;;4975391;28;20050;-80
2022/06/21 13:42:55;;;;;;;7.85;2.30;;;25.20;93.00;;;;;;4992189;28;20575;-80
2022/06/21 13:45:39;;;;;;;5.10;1.55;;;24.90;93.10;;;;;;4976078;28;20242;-80
2022/06/21 13:48:18;;;;;;;2.85;1.40;;;24.90;93.80;;;;;;4991722;28;20052;-81
2022/06/21 13:50:55;;;;;;;2.47;1.40;;;25.10;93.90;;;;;;4991558;28;20046;-81
2022/06/21 13:53:41;;;;;;;3.78;1.40;;;25.30;93.90;;;;;;4972452;28;20054;-81
2022/06/21 13:56:17;;;;;;;5.53;1.65;;;25.30;93.90;;;;;;4969383;28;20145;-81